sensor_id;sensor_type;location;lat;lon;timestamp;pressure;altitude;pressure_sealevel;temperature;humidity
53546;BME280;39432;51.902;10.844;2023-07-29T00:01:48;98788.81;;;21.67;100.00
53546;BME280;39432;51.902;10.844;2023-07-29T00:04:19;98785.75;;;21.44;100.00
53546;BME280;39432;51.902;10.844;2023-07-29T00:06:48;98787.47;;;20.88;100.00
53546;BME280;39432;51.902;10.844;2023-07-29T00:09:18;98791.97;;;20.92;100.00
53546;BME280;39432;51.902;10.844;2023-07-29T00:11:51;98805.03;;;20.55;100.00
53546;BME280;39432;51.902;10.844;2023-07-29T00:14:21;98815.94;;;20.72;100.00
53546;BME280;39432;51.902;10.844;2023-07-29T00:16:51;98826.50;;;20.13;100.00
53546;BME280;39432;51.902;10.844;2023-07-29T00:19:21;98829.03;;;20.39;100.00
53546;BME280;39432;51.902;10.844;2023-07-29T00:21:52;98836.66;;;19.88;100.00
53546;BME280;39432;51.902;10.844;2023-07-29T00:24:22;98854.25;;;20.34;100.00
53546;BME280;39432;51.902;10.844;2023-07-29T00:26:54;98847.09;;;19.91;100.00
53546;BME280;39432;51.902;10.844;2023-07-29T00:29:24;98850.47;;;20.38;100.00
53546;BME280;39432;51.902;10.844;2023-07-29T00:31:54;98831.94;;;20.75;100.00
53546;BME280;39432;51.902;10.844;2023-07-29T00:34:24;98818.75;;;21.09;100.00
53546;BME280;39432;51.902;10.844;2023-07-29T00:36:54;98801.97;;;21.54;100.00
53546;BME280;39432;51.902;10.844;2023-07-29T00:39:24;98788.41;;;21.28;100.00
53546;BME280;39432;51.902;10.844;2023-07-29T00:41:57;98798.25;;;19.90;100.00
53546;BME280;39432;51.902;10.844;2023-07-29T00:44:27;98824.25;;;20.60;100.00
53546;BME280;39432;51.902;10.844;2023-07-29T00:47:02;98808.53;;;20.76;100.00
53546;BME280;39432;51.902;10.844;2023-07-29T00:49:36;98800.19;;;20.76;100.00
53546;BME280;39432;51.902;10.844;2023-07-29T00:52:07;98800.88;;;20.73;100.00
53546;BME280;39432;51.902;10.844;2023-07-29T00:54:39;98798.56;;;20.63;100.00
53546;BME280;39432;51.902;10.844;2023-07-29T00:57:13;98787.25;;;21.17;100.00
53546;BME280;39432;51.902;10.844;2023-07-29T00:59:44;98788.38;;;20.79;100.00
53546;BME280;39432;51.902;10.844;2023-07-29T01:02:14;98790.22;;;20.30;100.00
53546;BME280;39432;51.902;10.844;2023-07-29T01:04:44;98803.44;;;20.33;100.00
53546;BME280;39432;51.902;10.844;2023-07-29T01:07:19;98800.91;;;20.86;100.00
53546;BME280;39432;51.902;10.844;2023-07-29T01:09:56;98787.94;;;20.90;100.00
53546;BME280;39432;51.902;10.844;2023-07-29T01:12:37;98785.56;;;20.55;100.00
53546;BME280;39432;51.902;10.844;2023-07-29T01:15:15;98793.84;;;20.88;100.00
53546;BME280;39432;51.902;10.844;2023-07-29T01:17:53;98775.50;;;20.30;100.00
53546;BME280;39432;51.902;10.844;2023-07-29T01:20:25;98788.81;;;20.69;100.00
53546;BME280;39432;51.902;10.844;2023-07-29T01:22:55;98763.94;;;20.73;100.00
53546;BME280;39432;51.902;10.844;2023-07-29T01:25:26;98777.03;;;20.72;100.00
53546;BME280;39432;51.902;10.844;2023-07-29T01:27:56;98777.50;;;20.41;100.00
53546;BME280;39432;51.902;10.844;2023-07-29T01:30:31;98772.94;;;20.70;100.00
53546;BME280;39432;51.902;10.844;2023-07-29T01:33:06;98765.13;;;20.39;100.00
53546;BME280;39432;51.902;10.844;2023-07-29T01:35:43;98778.53;;;19.83;100.00
53546;BME280;39432;51.902;10.844;2023-07-29T01:38:17;98792.03;;;19.93;100.00
53546;BME280;39432;51.902;10.844;2023-07-29T01:40:52;98804.97;;;19.89;100.00
53546;BME280;39432;51.902;10.844;2023-07-29T01:43:23;98795.38;;;20.19;100.00
53546;BME280;39432;51.902;10.844;2023-07-29T01:45:53;98782.38;;;20.44;100.00
53546;BME280;39432;51.902;10.844;2023-07-29T01:48:23;98782.66;;;20.51;100.00
53546;BME280;39432;51.902;10.844;2023-07-29T01:50:54;98780.97;;;20.05;100.00
53546;BME280;39432;51.902;10.844;2023-07-29T01:53:24;98787.84;;;19.36;100.00
53546;BME280;39432;51.902;10.844;2023-07-29T01:55:57;98790.53;;;19.74;100.00
53546;BME280;39432;51.902;10.844;2023-07-29T01:58:27;98793.91;;;20.01;100.00
53546;BME280;39432;51.902;10.844;2023-07-29T02:00:57;98779.06;;;19.55;100.00
53546;BME280;39432;51.902;10.844;2023-07-29T02:03:27;98776.25;;;19.85;100.00
53546;BME280;39432;51.902;10.844;2023-07-29T02:05:57;98769.59;;;19.56;100.00
53546;BME280;39432;51.902;10.844;2023-07-29T02:08:30;98771.53;;;19.64;100.00
53546;BME280;39432;51.902;10.844;2023-07-29T02:11:03;98782.31;;;19.99;100.00
53546;BME280;39432;51.902;10.844;2023-07-29T02:13:33;98766.72;;;20.27;100.00
53546;BME280;39432;51.902;10.844;2023-07-29T02:16:03;98754.13;;;20.09;100.00
53546;BME280;39432;51.902;10.844;2023-07-29T02:18:33;98772.72;;;19.96;100.00
53546;BME280;39432;51.902;10.844;2023-07-29T02:21:04;98765.28;;;20.55;100.00
53546;BME280;39432;51.902;10.844;2023-07-29T02:23:34;98770.00;;;19.46;100.00
53546;BME280;39432;51.902;10.844;2023-07-29T02:26:07;98779.91;;;20.31;100.00
53546;BME280;39432;51.902;10.844;2023-07-29T02:28:37;98775.03;;;19.94;100.00
53546;BME280;39432;51.902;10.844;2023-07-29T02:31:15;98782.63;;;19.05;100.00
53546;BME280;39432;51.902;10.844;2023-07-29T02:33:46;98782.09;;;20.25;100.00
53546;BME280;39432;51.902;10.844;2023-07-29T02:36:18;98772.94;;;19.70;100.00
53546;BME280;39432;51.902;10.844;2023-07-29T02:38:48;98788.38;;;19.30;100.00
53546;BME280;39432;51.902;10.844;2023-07-29T02:41:20;98800.31;;;18.92;100.00
53546;BME280;39432;51.902;10.844;2023-07-29T02:43:51;98810.72;;;18.95;100.00
53546;BME280;39432;51.902;10.844;2023-07-29T02:46:21;98797.50;;;19.60;100.00
53546;BME280;39432;51.902;10.844;2023-07-29T02:48:51;98782.97;;;19.33;100.00
53546;BME280;39432;51.902;10.844;2023-07-29T02:51:21;98801.41;;;18.44;100.00
53546;BME280;39432;51.902;10.844;2023-07-29T02:53:51;98814.34;;;17.88;100.00
53546;BME280;39432;51.902;10.844;2023-07-29T02:56:23;98828.50;;;17.95;100.00
53546;BME280;39432;51.902;10.844;2023-07-29T02:58:53;98829.59;;;17.68;100.00
53546;BME280;39432;51.902;10.844;2023-07-29T03:01:23;98820.22;;;17.78;100.00
53546;BME280;39432;51.902;10.844;2023-07-29T03:03:54;98827.22;;;18.01;100.00
53546;BME280;39432;51.902;10.844;2023-07-29T03:06:24;98815.22;;;18.61;100.00
53546;BME280;39432;51.902;10.844;2023-07-29T03:08:54;98795.66;;;19.13;100.00
53546;BME280;39432;51.902;10.844;2023-07-29T03:11:26;98772.28;;;19.23;100.00
53546;BME280;39432;51.902;10.844;2023-07-29T03:13:58;98783.59;;;19.09;100.00
53546;BME280;39432;51.902;10.844;2023-07-29T03:16:30;98789.06;;;18.33;100.00
53546;BME280;39432;51.902;10.844;2023-07-29T03:19:00;98809.00;;;18.73;100.00
53546;BME280;39432;51.902;10.844;2023-07-29T03:21:30;98811.50;;;18.57;100.00
53546;BME280;39432;51.902;10.844;2023-07-29T03:24:00;98823.41;;;18.58;100.00
53546;BME280;39432;51.902;10.844;2023-07-29T03:26:33;98837.28;;;18.40;100.00
53546;BME280;39432;51.902;10.844;2023-07-29T03:29:03;98858.59;;;18.49;100.00
53546;BME280;39432;51.902;10.844;2023-07-29T03:31:33;98849.03;;;19.40;100.00
53546;BME280;39432;51.902;10.844;2023-07-29T03:34:03;98830.66;;;19.56;100.00
53546;BME280;39432;51.902;10.844;2023-07-29T03:36:34;98815.13;;;19.85;100.00
53546;BME280;39432;51.902;10.844;2023-07-29T03:39:04;98794.38;;;20.03;100.00
53546;BME280;39432;51.902;10.844;2023-07-29T03:41:37;98794.22;;;20.20;100.00
53546;BME280;39432;51.902;10.844;2023-07-29T03:44:07;98793.53;;;19.10;100.00
53546;BME280;39432;51.902;10.844;2023-07-29T03:46:37;98814.47;;;18.99;100.00
53546;BME280;39432;51.902;10.844;2023-07-29T03:49:09;98812.81;;;19.87;100.00
53546;BME280;39432;51.902;10.844;2023-07-29T03:51:39;98790.34;;;20.00;100.00
53546;BME280;39432;51.902;10.844;2023-07-29T03:54:09;98782.69;;;20.31;100.00
53546;BME280;39432;51.902;10.844;2023-07-29T03:56:41;98766.94;;;20.35;100.00
53546;BME280;39432;51.902;10.844;2023-07-29T03:59:11;98771.22;;;19.57;100.00
53546;BME280;39432;51.902;10.844;2023-07-29T04:01:42;98779.75;;;18.93;100.00
53546;BME280;39432;51.902;10.844;2023-07-29T04:04:12;98798.22;;;19.48;100.00
53546;BME280;39432;51.902;10.844;2023-07-29T04:06:42;98774.19;;;19.94;100.00
53546;BME280;39432;51.902;10.844;2023-07-29T04:09:12;98781.09;;;19.46;100.00
53546;BME280;39432;51.902;10.844;2023-07-29T04:11:45;98784.66;;;19.76;100.00
53546;BME280;39432;51.902;10.844;2023-07-29T04:14:17;98792.31;;;19.29;100.00
53546;BME280;39432;51.902;10.844;2023-07-29T04:16:47;98811.03;;;19.02;100.00
53546;BME280;39432;51.902;10.844;2023-07-29T04:19:17;98815.81;;;19.22;100.00
53546;BME280;39432;51.902;10.844;2023-07-29T04:21:47;98812.81;;;20.08;100.00
53546;BME280;39432;51.902;10.844;2023-07-29T04:24:18;98792.25;;;20.54;100.00
53546;BME280;39432;51.902;10.844;2023-07-29T04:26:52;98776.66;;;19.95;100.00
53546;BME280;39432;51.902;10.844;2023-07-29T04:29:23;98794.09;;;19.54;100.00
53546;BME280;39432;51.902;10.844;2023-07-29T04:31:53;98787.56;;;20.00;100.00
53546;BME280;39432;51.902;10.844;2023-07-29T04:34:23;98784.91;;;20.04;100.00
53546;BME280;39432;51.902;10.844;2023-07-29T04:36:53;98783.22;;;19.70;100.00
53546;BME280;39432;51.902;10.844;2023-07-29T04:39:23;98782.69;;;20.64;100.00
53546;BME280;39432;51.902;10.844;2023-07-29T04:41:55;98767.75;;;21.54;100.00
53546;BME280;39432;51.902;10.844;2023-07-29T04:44:27;98749.13;;;21.30;100.00
53546;BME280;39432;51.902;10.844;2023-07-29T04:46:57;98748.28;;;20.56;100.00
53546;BME280;39432;51.902;10.844;2023-07-29T04:49:28;98744.34;;;20.82;100.00
53546;BME280;39432;51.902;10.844;2023-07-29T04:51:57;98725.47;;;20.75;100.00
53546;BME280;39432;51.902;10.844;2023-07-29T04:54:27;98735.00;;;20.29;100.00
53546;BME280;39432;51.902;10.844;2023-07-29T04:57:00;98733.47;;;21.01;100.00
53546;BME280;39432;51.902;10.844;2023-07-29T04:59:30;98720.47;;;21.17;100.00
53546;BME280;39432;51.902;10.844;2023-07-29T05:02:00;98708.41;;;21.38;100.00
53546;BME280;39432;51.902;10.844;2023-07-29T05:04:30;98705.91;;;20.84;100.00
53546;BME280;39432;51.902;10.844;2023-07-29T05:07:00;98727.88;;;20.52;100.00
53546;BME280;39432;51.902;10.844;2023-07-29T05:09:30;98727.19;;;21.04;100.00
53546;BME280;39432;51.902;10.844;2023-07-29T05:12:04;98743.03;;;21.52;100.00
53546;BME280;39432;51.902;10.844;2023-07-29T05:14:34;98718.22;;;23.26;100.00
53546;BME280;39432;51.902;10.844;2023-07-29T05:17:05;98695.16;;;23.29;100.00
53546;BME280;39432;51.902;10.844;2023-07-29T05:19:35;98696.03;;;22.67;100.00
53546;BME280;39432;51.902;10.844;2023-07-29T05:22:05;98682.78;;;23.46;100.00
53546;BME280;39432;51.902;10.844;2023-07-29T05:24:37;98674.00;;;24.06;100.00
53546;BME280;39432;51.902;10.844;2023-07-29T05:27:09;98655.53;;;23.04;100.00
53546;BME280;39432;51.902;10.844;2023-07-29T05:29:39;98662.97;;;23.16;100.00
53546;BME280;39432;51.902;10.844;2023-07-29T05:32:09;98662.47;;;22.95;100.00
53546;BME280;39432;51.902;10.844;2023-07-29T05:34:41;98664.16;;;22.04;100.00
53546;BME280;39432;51.902;10.844;2023-07-29T05:37:12;98662.31;;;22.87;100.00
53546;BME280;39432;51.902;10.844;2023-07-29T05:39:42;98651.50;;;22.86;100.00
53546;BME280;39432;51.902;10.844;2023-07-29T05:42:17;98643.00;;;23.14;100.00
53546;BME280;39432;51.902;10.844;2023-07-29T05:44:48;98637.28;;;23.26;100.00
53546;BME280;39432;51.902;10.844;2023-07-29T05:47:19;98644.16;;;23.13;100.00
53546;BME280;39432;51.902;10.844;2023-07-29T05:49:49;98643.72;;;23.11;100.00
53546;BME280;39432;51.902;10.844;2023-07-29T05:52:19;98656.97;;;23.53;100.00
53546;BME280;39432;51.902;10.844;2023-07-29T05:54:49;98664.44;;;23.29;100.00
53546;BME280;39432;51.902;10.844;2023-07-29T05:57:22;98688.47;;;22.35;100.00
53546;BME280;39432;51.902;10.844;2023-07-29T05:59:52;98707.00;;;21.31;100.00
53546;BME280;39432;51.902;10.844;2023-07-29T06:02:22;98744.78;;;20.59;100.00
53546;BME280;39432;51.902;10.844;2023-07-29T06:04:52;98787.28;;;20.26;100.00
53546;BME280;39432;51.902;10.844;2023-07-29T06:07:22;98808.03;;;20.29;100.00
53546;BME280;39432;51.902;10.844;2023-07-29T06:09:56;98838.72;;;20.33;100.00
53546;BME280;39432;51.902;10.844;2023-07-29T06:12:29;98828.25;;;20.84;100.00
53546;BME280;39432;51.902;10.844;2023-07-29T06:14:59;98821.50;;;20.72;100.00
53546;BME280;39432;51.902;10.844;2023-07-29T06:17:29;98802.66;;;20.90;100.00
53546;BME280;39432;51.902;10.844;2023-07-29T06:19:59;98809.03;;;21.52;100.00
53546;BME280;39432;51.902;10.844;2023-07-29T06:22:29;98793.84;;;21.25;100.00
53546;BME280;39432;51.902;10.844;2023-07-29T06:24:59;98784.63;;;21.73;100.00
53546;BME280;39432;51.902;10.844;2023-07-29T06:27:32;98768.91;;;21.28;100.00
53546;BME280;39432;51.902;10.844;2023-07-29T06:30:02;98779.13;;;21.12;100.00
53546;BME280;39432;51.902;10.844;2023-07-29T06:32:33;98776.53;;;22.37;100.00
53546;BME280;39432;51.902;10.844;2023-07-29T06:35:04;98771.25;;;21.39;100.00
53546;BME280;39432;51.902;10.844;2023-07-29T06:37:34;98764.59;;;21.96;100.00
53546;BME280;39432;51.902;10.844;2023-07-29T06:40:05;98758.34;;;22.27;100.00
53546;BME280;39432;51.902;10.844;2023-07-29T06:42:38;98751.81;;;22.67;100.00
53546;BME280;39432;51.902;10.844;2023-07-29T06:45:09;98740.91;;;22.46;100.00
53546;BME280;39432;51.902;10.844;2023-07-29T06:47:39;98741.84;;;22.81;100.00
53546;BME280;39432;51.902;10.844;2023-07-29T06:50:10;98736.63;;;22.64;100.00
53546;BME280;39432;51.902;10.844;2023-07-29T06:52:40;98743.16;;;22.40;100.00
53546;BME280;39432;51.902;10.844;2023-07-29T06:55:10;98753.66;;;22.15;100.00
53546;BME280;39432;51.902;10.844;2023-07-29T06:57:43;98755.22;;;22.44;100.00
53546;BME280;39432;51.902;10.844;2023-07-29T07:00:13;98733.97;;;21.96;100.00
53546;BME280;39432;51.902;10.844;2023-07-29T07:02:43;98740.75;;;22.39;100.00
53546;BME280;39432;51.902;10.844;2023-07-29T07:05:13;98742.88;;;22.01;100.00
53546;BME280;39432;51.902;10.844;2023-07-29T07:07:43;98743.66;;;22.14;100.00
53546;BME280;39432;51.902;10.844;2023-07-29T07:10:14;98754.22;;;22.37;100.00
53546;BME280;39432;51.902;10.844;2023-07-29T07:12:46;98737.78;;;22.47;100.00
53546;BME280;39432;51.902;10.844;2023-07-29T07:15:17;98740.44;;;22.00;100.00
53546;BME280;39432;51.902;10.844;2023-07-29T07:17:47;98757.00;;;22.21;100.00
53546;BME280;39432;51.902;10.844;2023-07-29T07:20:17;98764.03;;;21.90;100.00
53546;BME280;39432;51.902;10.844;2023-07-29T07:22:47;98756.25;;;21.96;100.00
53546;BME280;39432;51.902;10.844;2023-07-29T07:25:17;98773.78;;;21.56;100.00
53546;BME280;39432;51.902;10.844;2023-07-29T07:27:50;98806.00;;;20.84;100.00
53546;BME280;39432;51.902;10.844;2023-07-29T07:30:20;98833.66;;;20.14;100.00
53546;BME280;39432;51.902;10.844;2023-07-29T07:32:50;98870.91;;;19.92;100.00
53546;BME280;39432;51.902;10.844;2023-07-29T07:35:20;98885.03;;;20.49;100.00
53546;BME280;39432;51.902;10.844;2023-07-29T07:37:50;98898.22;;;20.11;100.00
53546;BME280;39432;51.902;10.844;2023-07-29T07:40:20;98893.41;;;21.07;100.00
53546;BME280;39432;51.902;10.844;2023-07-29T07:42:53;98879.56;;;21.68;100.00
53546;BME280;39432;51.902;10.844;2023-07-29T07:45:23;98854.00;;;21.91;100.00
53546;BME280;39432;51.902;10.844;2023-07-29T07:47:53;98819.81;;;21.66;100.00
53546;BME280;39432;51.902;10.844;2023-07-29T07:50:24;98801.13;;;22.06;100.00
53546;BME280;39432;51.902;10.844;2023-07-29T07:52:54;98795.13;;;20.45;100.00
53546;BME280;39432;51.902;10.844;2023-07-29T07:55:23;98840.44;;;19.83;100.00
53546;BME280;39432;51.902;10.844;2023-07-29T07:57:56;98872.41;;;19.68;100.00
53546;BME280;39432;51.902;10.844;2023-07-29T08:00:26;98877.50;;;20.50;100.00
53546;BME280;39432;51.902;10.844;2023-07-29T08:02:56;98875.19;;;20.10;100.00
53546;BME280;39432;51.902;10.844;2023-07-29T08:05:26;98884.72;;;20.63;100.00
53546;BME280;39432;51.902;10.844;2023-07-29T08:07:56;98907.75;;;19.42;100.00
53546;BME280;39432;51.902;10.844;2023-07-29T08:10:27;98930.38;;;19.14;100.00
53546;BME280;39432;51.902;10.844;2023-07-29T08:12:59;98946.59;;;19.51;100.00
53546;BME280;39432;51.902;10.844;2023-07-29T08:15:30;98956.81;;;19.20;100.00
53546;BME280;39432;51.902;10.844;2023-07-29T08:18:00;98961.75;;;19.44;100.00
53546;BME280;39432;51.902;10.844;2023-07-29T08:20:30;98953.56;;;19.95;100.00
53546;BME280;39432;51.902;10.844;2023-07-29T08:23:00;98942.53;;;19.78;100.00
53546;BME280;39432;51.902;10.844;2023-07-29T08:25:31;98936.41;;;19.93;100.00
53546;BME280;39432;51.902;10.844;2023-07-29T08:28:04;98920.03;;;20.42;100.00
53546;BME280;39432;51.902;10.844;2023-07-29T08:30:33;98899.69;;;19.58;100.00
53546;BME280;39432;51.902;10.844;2023-07-29T08:33:03;98918.16;;;19.62;100.00
53546;BME280;39432;51.902;10.844;2023-07-29T08:35:33;98924.47;;;20.22;100.00
53546;BME280;39432;51.902;10.844;2023-07-29T08:38:04;98895.72;;;20.18;100.00
53546;BME280;39432;51.902;10.844;2023-07-29T08:40:35;98880.22;;;21.16;100.00
53546;BME280;39432;51.902;10.844;2023-07-29T08:43:09;98857.16;;;20.70;100.00
53546;BME280;39432;51.902;10.844;2023-07-29T08:45:44;98853.75;;;20.98;100.00
53546;BME280;39432;51.902;10.844;2023-07-29T08:48:19;98816.97;;;21.38;100.00
53546;BME280;39432;51.902;10.844;2023-07-29T08:50:53;98768.91;;;21.53;100.00
53546;BME280;39432;51.902;10.844;2023-07-29T08:53:23;98768.13;;;20.34;100.00
53546;BME280;39432;51.902;10.844;2023-07-29T08:55:53;98781.56;;;21.14;100.00
53546;BME280;39432;51.902;10.844;2023-07-29T08:58:27;98771.94;;;21.11;100.00
53546;BME280;39432;51.902;10.844;2023-07-29T09:00:57;98780.06;;;21.41;100.00
53546;BME280;39432;51.902;10.844;2023-07-29T09:03:27;98789.44;;;21.36;100.00
53546;BME280;39432;51.902;10.844;2023-07-29T09:05:58;98791.31;;;21.44;100.00
53546;BME280;39432;51.902;10.844;2023-07-29T09:08:28;98784.25;;;22.27;100.00
53546;BME280;39432;51.902;10.844;2023-07-29T09:10:58;98758.41;;;22.15;100.00
53546;BME280;39432;51.902;10.844;2023-07-29T09:13:31;98759.28;;;21.91;100.00
53546;BME280;39432;51.902;10.844;2023-07-29T09:16:01;98758.44;;;22.30;100.00
53546;BME280;39432;51.902;10.844;2023-07-29T09:18:31;98743.41;;;21.79;100.00
53546;BME280;39432;51.902;10.844;2023-07-29T09:21:01;98758.09;;;22.32;100.00
53546;BME280;39432;51.902;10.844;2023-07-29T09:23:38;98752.81;;;22.74;100.00
53546;BME280;39432;51.902;10.844;2023-07-29T09:26:09;98743.72;;;21.62;100.00
53546;BME280;39432;51.902;10.844;2023-07-29T09:28:42;98761.31;;;22.06;100.00
53546;BME280;39432;51.902;10.844;2023-07-29T09:31:19;98762.66;;;21.84;100.00
53546;BME280;39432;51.902;10.844;2023-07-29T09:33:49;98775.22;;;22.18;100.00
53546;BME280;39432;51.902;10.844;2023-07-29T09:36:21;98759.13;;;22.87;100.00
53546;BME280;39432;51.902;10.844;2023-07-29T09:38:54;98716.09;;;23.39;100.00
53546;BME280;39432;51.902;10.844;2023-07-29T09:41:25;98688.41;;;22.48;100.00
53546;BME280;39432;51.902;10.844;2023-07-29T09:44:02;98717.81;;;22.61;100.00
53546;BME280;39432;51.902;10.844;2023-07-29T09:46:35;98720.94;;;23.07;100.00
53546;BME280;39432;51.902;10.844;2023-07-29T09:49:07;98711.16;;;22.66;100.00
53546;BME280;39432;51.902;10.844;2023-07-29T09:51:38;98712.69;;;22.03;100.00
53546;BME280;39432;51.902;10.844;2023-07-29T09:54:09;98743.53;;;22.54;100.00
53546;BME280;39432;51.902;10.844;2023-07-29T09:56:42;98744.00;;;22.72;100.00
53546;BME280;39432;51.902;10.844;2023-07-29T09:59:18;98735.00;;;22.63;100.00
53546;BME280;39432;51.902;10.844;2023-07-29T10:01:49;98732.47;;;22.58;100.00
53546;BME280;39432;51.902;10.844;2023-07-29T10:04:19;98735.63;;;22.56;100.00
53546;BME280;39432;51.902;10.844;2023-07-29T10:06:50;98734.19;;;22.31;100.00
53546;BME280;39432;51.902;10.844;2023-07-29T10:09:20;98730.19;;;22.92;100.00
53546;BME280;39432;51.902;10.844;2023-07-29T10:11:51;98726.72;;;23.14;100.00
53546;BME280;39432;51.902;10.844;2023-07-29T10:14:27;98723.41;;;22.77;100.00
53546;BME280;39432;51.902;10.844;2023-07-29T10:16:57;98728.00;;;22.69;100.00
53546;BME280;39432;51.902;10.844;2023-07-29T10:19:28;98732.66;;;24.02;100.00
53546;BME280;39432;51.902;10.844;2023-07-29T10:21:59;98687.44;;;24.19;100.00
53546;BME280;39432;51.902;10.844;2023-07-29T10:24:32;98696.47;;;23.90;100.00
53546;BME280;39432;51.902;10.844;2023-07-29T10:27:04;98687.75;;;25.06;100.00
53546;BME280;39432;51.902;10.844;2023-07-29T10:29:40;98664.69;;;24.40;100.00
53546;BME280;39432;51.902;10.844;2023-07-29T10:32:12;98678.91;;;24.55;100.00
53546;BME280;39432;51.902;10.844;2023-07-29T10:34:42;98682.41;;;23.48;100.00
53546;BME280;39432;51.902;10.844;2023-07-29T10:37:12;98703.94;;;24.05;100.00
53546;BME280;39432;51.902;10.844;2023-07-29T10:39:52;98701.97;;;23.86;100.00
53546;BME280;39432;51.902;10.844;2023-07-29T10:42:22;98686.44;;;23.89;100.00
53546;BME280;39432;51.902;10.844;2023-07-29T10:44:55;98702.38;;;23.30;100.00
53546;BME280;39432;51.902;10.844;2023-07-29T10:47:26;98706.13;;;23.38;100.00
53546;BME280;39432;51.902;10.844;2023-07-29T10:49:58;98730.50;;;22.74;100.00
53546;BME280;39432;51.902;10.844;2023-07-29T10:52:39;98747.59;;;22.57;100.00
53546;BME280;39432;51.902;10.844;2023-07-29T10:55:24;98759.28;;;22.78;100.00
53546;BME280;39432;51.902;10.844;2023-07-29T10:58:10;98764.22;;;22.85;100.00
53546;BME280;39432;51.902;10.844;2023-07-29T11:00:45;98748.84;;;23.07;100.00
53546;BME280;39432;51.902;10.844;2023-07-29T11:03:15;98736.19;;;23.45;100.00
53546;BME280;39432;51.902;10.844;2023-07-29T11:05:49;98713.69;;;23.37;100.00
53546;BME280;39432;51.902;10.844;2023-07-29T11:08:22;98704.63;;;23.25;100.00
53546;BME280;39432;51.902;10.844;2023-07-29T11:11:00;98689.66;;;23.68;100.00
53546;BME280;39432;51.902;10.844;2023-07-29T11:13:32;98679.16;;;24.04;100.00
53546;BME280;39432;51.902;10.844;2023-07-29T11:16:06;98674.81;;;23.48;100.00
53546;BME280;39432;51.902;10.844;2023-07-29T11:18:36;98670.94;;;23.53;100.00
53546;BME280;39432;51.902;10.844;2023-07-29T11:21:06;98655.38;;;23.52;100.00
53546;BME280;39432;51.902;10.844;2023-07-29T11:23:36;98643.16;;;23.60;100.00
53546;BME280;39432;51.902;10.844;2023-07-29T11:26:06;98653.16;;;23.80;100.00
53546;BME280;39432;51.902;10.844;2023-07-29T11:28:39;98654.59;;;24.59;100.00
53546;BME280;39432;51.902;10.844;2023-07-29T11:31:12;98650.53;;;24.10;100.00
53546;BME280;39432;51.902;10.844;2023-07-29T11:33:42;98644.91;;;24.30;100.00
53546;BME280;39432;51.902;10.844;2023-07-29T11:36:18;98633.03;;;24.13;100.00
53546;BME280;39432;51.902;10.844;2023-07-29T11:38:50;98628.31;;;23.75;100.00
53546;BME280;39432;51.902;10.844;2023-07-29T11:41:20;98635.34;;;23.50;100.00
53546;BME280;39432;51.902;10.844;2023-07-29T11:43:51;98638.59;;;23.32;100.00
53546;BME280;39432;51.902;10.844;2023-07-29T11:46:24;98637.44;;;22.82;100.00
53546;BME280;39432;51.902;10.844;2023-07-29T11:48:54;98642.66;;;23.00;100.00
53546;BME280;39432;51.902;10.844;2023-07-29T11:51:25;98632.69;;;23.18;100.00
53546;BME280;39432;51.902;10.844;2023-07-29T11:53:55;98617.41;;;23.12;100.00
53546;BME280;39432;51.902;10.844;2023-07-29T11:56:26;98623.41;;;22.95;100.00
53546;BME280;39432;51.902;10.844;2023-07-29T11:58:57;98645.03;;;22.98;100.00
53546;BME280;39432;51.902;10.844;2023-07-29T12:01:30;98662.16;;;22.49;100.00
53546;BME280;39432;51.902;10.844;2023-07-29T12:04:00;98681.91;;;22.12;100.00
53546;BME280;39432;51.902;10.844;2023-07-29T12:06:31;98708.63;;;22.29;100.00
53546;BME280;39432;51.902;10.844;2023-07-29T12:09:02;98721.03;;;22.31;100.00
53546;BME280;39432;51.902;10.844;2023-07-29T12:11:33;98723.31;;;22.42;100.00
53546;BME280;39432;51.902;10.844;2023-07-29T12:14:03;98721.94;;;22.51;100.00
53546;BME280;39432;51.902;10.844;2023-07-29T12:16:42;98740.94;;;22.77;100.00
53546;BME280;39432;51.902;10.844;2023-07-29T12:19:12;98749.06;;;22.98;100.00
53546;BME280;39432;51.902;10.844;2023-07-29T12:21:44;98738.78;;;22.86;100.00
53546;BME280;39432;51.902;10.844;2023-07-29T12:24:15;98723.31;;;23.05;100.00
53546;BME280;39432;51.902;10.844;2023-07-29T12:26:47;98707.63;;;23.16;100.00
53546;BME280;39432;51.902;10.844;2023-07-29T12:29:18;98693.59;;;23.67;100.00
53546;BME280;39432;51.902;10.844;2023-07-29T12:31:57;98679.72;;;23.71;100.00
53546;BME280;39432;51.902;10.844;2023-07-29T12:34:29;98669.16;;;23.25;100.00
53546;BME280;39432;51.902;10.844;2023-07-29T12:37:02;98680.50;;;23.17;100.00
53546;BME280;39432;51.902;10.844;2023-07-29T12:39:40;98688.34;;;23.11;100.00
53546;BME280;39432;51.902;10.844;2023-07-29T12:42:10;98683.91;;;23.26;100.00
53546;BME280;39432;51.902;10.844;2023-07-29T12:44:40;98662.63;;;23.37;100.00
53546;BME280;39432;51.902;10.844;2023-07-29T12:47:13;98647.34;;;23.31;100.00
53546;BME280;39432;51.902;10.844;2023-07-29T12:49:43;98646.09;;;23.48;100.00
53546;BME280;39432;51.902;10.844;2023-07-29T12:52:13;98641.69;;;23.66;100.00
53546;BME280;39432;51.902;10.844;2023-07-29T12:54:43;98642.19;;;23.91;100.00
53546;BME280;39432;51.902;10.844;2023-07-29T12:57:13;98639.34;;;24.10;100.00
53546;BME280;39432;51.902;10.844;2023-07-29T12:59:43;98634.94;;;24.32;100.00
53546;BME280;39432;51.902;10.844;2023-07-29T13:02:16;98628.44;;;24.25;100.00